Time;durP1;ratioP1;P1;durP2;ratioP2;P2;SDS_P1;SDS_P2;PMS_P1;PMS_P2;Temp;Humidity;BMP_temperature;BMP_pressure;BME280_temperature;BME280_humidity;BME280_pressure;Samples;Min_cycle;Max_cycle;Signal;HPM_P1;HPM_P2
2021/12/02 00:02:02;;;;;;;5.97;5.37;;;6.00;99.90;;;;;;6128429;28;20487;-65
2021/12/02 00:05:07;;;;;;;7.93;7.23;;;6.00;99.90;;;;;;6128556;28;20479;-64
2021/12/02 00:08:10;;;;;;;6.00;5.40;;;5.90;99.90;;;;;;6128996;28;20480;-65
2021/12/02 00:11:17;;;;;;;7.20;6.30;;;5.90;99.90;;;;;;6118622;28;20468;-66
2021/12/02 00:14:24;;;;;;;6.70;5.63;;;5.90;99.90;;;;;;6105355;28;20484;-65
2021/12/02 00:17:29;;;;;;;8.13;5.57;;;5.90;99.90;;;;;;6103534;28;20484;-65
2021/12/02 00:24:02;;;;;;;9.73;5.53;;;5.80;99.90;;;;;;6104316;28;20480;-64
2021/12/02 00:27:07;;;;;;;6.37;5.57;;;5.80;99.90;;;;;;6104505;28;20492;-65
2021/12/02 00:30:11;;;;;;;5.10;4.63;;;5.80;99.90;;;;;;6104548;28;20477;-67
2021/12/02 00:33:17;;;;;;;6.20;5.60;;;5.90;99.90;;;;;;6104468;28;20476;-65
2021/12/02 00:36:24;;;;;;;7.20;5.43;;;5.90;99.90;;;;;;6104358;28;20495;-66
2021/12/02 00:39:29;;;;;;;8.77;5.87;;;5.80;99.90;;;;;;6104409;28;20534;-67
2021/12/02 00:42:36;;;;;;;6.63;6.00;;;5.90;99.90;;;;;;6104104;28;21174;-66
2021/12/02 00:45:40;;;;;;;5.07;4.67;;;5.90;99.90;;;;;;6103591;28;20488;-65
2021/12/02 00:48:45;;;;;;;10.13;6.00;;;5.80;99.90;;;;;;6104691;28;20841;-66
2021/12/02 00:51:54;;;;;;;4.73;4.33;;;5.80;99.90;;;;;;6104825;28;20483;-65
2021/12/02 00:54:58;;;;;;;5.80;4.70;;;5.80;99.90;;;;;;6104326;28;20473;-64
2021/12/02 00:58:02;;;;;;;5.13;4.63;;;5.80;99.90;;;;;;6103914;28;20953;-67
2021/12/02 01:01:06;;;;;;;5.70;4.63;;;5.80;99.90;;;;;;6102577;28;20538;-67
2021/12/02 01:04:13;;;;;;;6.93;5.20;;;5.90;99.90;;;;;;6103088;28;20881;-67
2021/12/02 01:07:18;;;;;;;6.10;5.50;;;5.90;99.90;;;;;;6101837;28;20496;-66
2021/12/02 01:10:22;;;;;;;5.57;4.77;;;6.00;99.90;;;;;;6102261;28;20476;-66
2021/12/02 01:13:25;;;;;;;5.40;4.70;;;6.00;99.90;;;;;;6092484;28;20457;-67
2021/12/02 01:16:29;;;;;;;6.40;4.77;;;6.00;99.90;;;;;;6082981;28;20490;-65
2021/12/02 01:19:32;;;;;;;7.00;5.33;;;6.00;99.90;;;;;;6077901;28;20574;-65
2021/12/02 01:22:39;;;;;;;5.17;4.67;;;6.00;99.90;;;;;;6078922;28;20457;-65
2021/12/02 01:25:43;;;;;;;5.13;4.63;;;6.00;99.90;;;;;;6083187;28;20799;-65
2021/12/02 01:28:49;;;;;;;5.27;4.43;;;6.10;99.90;;;;;;6101447;28;20984;-65
2021/12/02 01:31:54;;;;;;;5.50;4.90;;;6.10;99.90;;;;;;6102634;28;20469;-64
2021/12/02 01:34:59;;;;;;;5.20;4.70;;;6.10;99.90;;;;;;6102744;28;20477;-65
2021/12/02 01:38:04;;;;;;;5.00;4.30;;;6.10;99.90;;;;;;6103056;28;20825;-64
2021/12/02 01:41:07;;;;;;;6.50;5.37;;;6.10;99.90;;;;;;6103460;28;20595;-64
2021/12/02 01:44:12;;;;;;;6.20;4.97;;;6.10;99.90;;;;;;6107565;28;20818;-64
2021/12/02 01:47:16;;;;;;;5.77;5.27;;;6.10;99.90;;;;;;6125810;28;20472;-64
2021/12/02 01:50:22;;;;;;;6.03;5.40;;;6.10;99.90;;;;;;6125492;28;20472;-65
2021/12/02 01:53:31;;;;;;;5.87;4.70;;;6.10;99.90;;;;;;6123477;28;20483;-65
2021/12/02 01:56:43;;;;;;;5.97;4.60;;;6.10;99.90;;;;;;6125258;28;20976;-64
2021/12/02 01:59:52;;;;;;;6.23;4.80;;;6.10;99.90;;;;;;6125044;28;20832;-65
2021/12/02 02:02:55;;;;;;;6.17;5.57;;;6.20;99.90;;;;;;6126400;28;20472;-65
2021/12/02 02:06:04;;;;;;;7.27;6.20;;;6.00;99.90;;;;;;6126076;28;20494;-65
2021/12/02 02:09:11;;;;;;;11.90;7.17;;;6.00;99.90;;;;;;6126045;28;20486;-64
2021/12/02 02:12:15;;;;;;;8.53;7.20;;;5.90;99.90;;;;;;6126163;28;20484;-64
2021/12/02 02:15:18;;;;;;;7.47;6.43;;;6.00;99.90;;;;;;6126168;28;20487;-64
2021/12/02 02:18:23;;;;;;;6.40;5.40;;;6.00;99.90;;;;;;6121474;28;20963;-64
2021/12/02 02:21:28;;;;;;;6.03;5.37;;;6.00;99.90;;;;;;6125930;28;20913;-64
2021/12/02 02:24:32;;;;;;;5.30;4.77;;;6.00;99.90;;;;;;6125651;28;20476;-63
2021/12/02 02:27:35;;;;;;;5.63;5.03;;;5.90;99.90;;;;;;6105485;28;20484;-65
2021/12/02 02:30:38;;;;;;;5.27;4.80;;;6.00;99.90;;;;;;6102710;28;20491;-67
2021/12/02 02:33:42;;;;;;;5.43;4.93;;;5.90;99.90;;;;;;6102194;28;20538;-65
2021/12/02 02:36:52;;;;;;;7.10;4.90;;;6.00;99.90;;;;;;6102496;28;20481;-64
2021/12/02 02:39:55;;;;;;;8.83;5.23;;;6.00;99.90;;;;;;6103627;28;20483;-64
2021/12/02 02:43:05;;;;;;;6.27;4.83;;;6.00;99.90;;;;;;6106078;28;20522;-64
2021/12/02 02:46:08;;;;;;;5.53;4.60;;;6.10;99.90;;;;;;6106007;28;20484;-64
2021/12/02 02:49:13;;;;;;;7.10;5.20;;;6.10;99.90;;;;;;6106053;28;20479;-66
2021/12/02 02:52:17;;;;;;;9.40;8.50;;;6.10;99.90;;;;;;6106202;28;20468;-67
2021/12/02 02:55:24;;;;;;;9.30;6.13;;;6.10;99.90;;;;;;6106103;28;20813;-66
2021/12/02 02:58:33;;;;;;;6.77;6.07;;;6.10;99.90;;;;;;6106328;28;20595;-66
2021/12/02 03:01:44;;;;;;;6.80;5.77;;;6.10;99.90;;;;;;6106238;28;20448;-67
2021/12/02 03:04:55;;;;;;;6.07;5.03;;;6.20;99.90;;;;;;6106628;28;20475;-67
2021/12/02 03:08:10;;;;;;;6.37;4.67;;;6.10;99.90;;;;;;6106230;28;20476;-66
2021/12/02 03:11:16;;;;;;;5.27;4.77;;;6.10;99.90;;;;;;6106213;28;20469;-67
2021/12/02 03:14:27;;;;;;;5.20;4.70;;;6.10;99.90;;;;;;6105931;28;20472;-67
2021/12/02 03:17:29;;;;;;;5.80;5.17;;;6.10;99.90;;;;;;6106409;28;20487;-67
2021/12/02 03:20:32;;;;;;;7.50;4.90;;;6.10;99.90;;;;;;6106665;28;20468;-67
2021/12/02 03:23:49;;;;;;;6.03;5.03;;;6.10;99.90;;;;;;6106513;28;20483;-67
2021/12/02 03:26:53;;;;;;;5.90;4.67;;;6.20;99.90;;;;;;6107670;28;20480;-66
2021/12/02 03:29:56;;;;;;;5.70;5.13;;;6.20;99.90;;;;;;6108259;28;20476;-66
2021/12/02 03:32:59;;;;;;;5.43;4.67;;;6.10;99.90;;;;;;6107463;28;20484;-66
2021/12/02 03:36:02;;;;;;;4.03;3.70;;;6.10;99.90;;;;;;6107163;28;20499;-66
2021/12/02 03:39:09;;;;;;;5.87;4.90;;;6.10;99.90;;;;;;6106730;28;20481;-66
2021/12/02 03:42:13;;;;;;;6.33;4.90;;;6.00;99.90;;;;;;6108016;28;20468;-66
2021/12/02 03:45:16;;;;;;;6.40;5.10;;;6.00;99.90;;;;;;6107089;28;20968;-66
2021/12/02 03:48:19;;;;;;;5.13;4.53;;;5.90;99.90;;;;;;6106095;28;20856;-66
2021/12/02 03:51:23;;;;;;;6.00;4.20;;;5.90;99.90;;;;;;6104996;28;20483;-66
2021/12/02 03:54:28;;;;;;;5.13;4.43;;;5.90;99.90;;;;;;6104598;28;20977;-66
2021/12/02 03:57:32;;;;;;;6.90;5.07;;;5.90;99.90;;;;;;6105133;28;20500;-66
2021/12/02 04:00:35;;;;;;;5.67;4.37;;;5.90;99.90;;;;;;6104940;28;20472;-66
2021/12/02 04:03:40;;;;;;;5.03;4.43;;;5.80;99.90;;;;;;6104897;28;20487;-66
2021/12/02 04:06:43;;;;;;;4.60;4.20;;;5.90;99.90;;;;;;6104333;28;20485;-66
2021/12/02 04:09:49;;;;;;;5.80;4.43;;;5.90;99.90;;;;;;6104518;28;20555;-66
2021/12/02 04:13:01;;;;;;;5.57;5.03;;;6.00;99.90;;;;;;6104940;28;20477;-67
2021/12/02 04:16:13;;;;;;;6.40;4.17;;;6.00;99.90;;;;;;6104743;28;20511;-66
2021/12/02 04:19:16;;;;;;;5.57;4.93;;;6.10;99.90;;;;;;6104975;28;20566;-66
2021/12/02 04:22:19;;;;;;;6.00;4.90;;;6.10;99.90;;;;;;6105169;28;20480;-66
2021/12/02 04:25:25;;;;;;;5.20;4.60;;;6.10;99.90;;;;;;6104651;28;20487;-67
2021/12/02 04:28:28;;;;;;;4.80;4.30;;;6.20;99.90;;;;;;6104404;28;20488;-66
2021/12/02 04:31:31;;;;;;;6.00;4.70;;;6.20;99.90;;;;;;6104914;28;20452;-66
2021/12/02 04:34:34;;;;;;;6.83;5.23;;;6.20;99.90;;;;;;6104814;28;20538;-66
2021/12/02 04:37:37;;;;;;;5.37;4.33;;;6.20;99.90;;;;;;6104214;28;20491;-66
2021/12/02 04:40:42;;;;;;;6.43;4.53;;;6.20;99.90;;;;;;6104452;28;20934;-66
2021/12/02 04:43:45;;;;;;;4.57;4.13;;;6.30;99.90;;;;;;6104278;28;20460;-66
2021/12/02 04:46:50;;;;;;;5.00;4.50;;;6.30;99.90;;;;;;6104006;28;20476;-66
2021/12/02 04:49:54;;;;;;;5.20;4.80;;;6.30;99.90;;;;;;6104487;28;20547;-67
2021/12/02 04:52:57;;;;;;;5.43;4.83;;;6.30;99.90;;;;;;6104120;28;20477;-66
2021/12/02 04:56:01;;;;;;;5.60;4.93;;;6.30;99.90;;;;;;6104801;28;20485;-66
2021/12/02 04:59:05;;;;;;;4.57;4.17;;;6.30;99.90;;;;;;6104412;28;20481;-66
2021/12/02 05:02:08;;;;;;;6.80;5.10;;;6.20;99.90;;;;;;6103579;28;20593;-66
2021/12/02 05:05:12;;;;;;;6.63;4.97;;;6.10;99.90;;;;;;6103868;28;20492;-65
2021/12/02 05:08:15;;;;;;;6.70;5.03;;;6.10;99.90;;;;;;6103662;28;20484;-66
2021/12/02 05:11:20;;;;;;;8.97;6.17;;;6.10;99.90;;;;;;6104061;28;20484;-66
2021/12/02 05:14:23;;;;;;;6.30;5.67;;;6.00;99.90;;;;;;6103894;28;20514;-66
2021/12/02 05:17:26;;;;;;;7.57;5.70;;;5.90;99.90;;;;;;6103730;28;20480;-66
2021/12/02 05:20:29;;;;;;;5.87;5.30;;;5.80;99.90;;;;;;6103825;28;20503;-66
2021/12/02 05:23:33;;;;;;;7.93;5.50;;;5.70;99.90;;;;;;6103471;28;20519;-66
2021/12/02 05:26:37;;;;;;;8.90;6.10;;;5.70;99.90;;;;;;6103417;28;20991;-66
2021/12/02 05:29:41;;;;;;;7.73;5.90;;;5.80;99.90;;;;;;6099348;28;20481;-66
2021/12/02 05:32:44;;;;;;;9.17;6.20;;;5.90;99.90;;;;;;6103369;28;20496;-66
2021/12/02 05:35:47;;;;;;;9.53;6.60;;;5.90;99.90;;;;;;6103058;28;20473;-66
2021/12/02 05:38:51;;;;;;;6.63;5.93;;;5.90;99.90;;;;;;6103276;28;20473;-66
2021/12/02 05:41:55;;;;;;;8.07;6.27;;;5.90;99.90;;;;;;6103137;28;20971;-66
2021/12/02 05:44:58;;;;;;;15.60;11.60;;;5.90;99.90;;;;;;6103134;28;20483;-66
2021/12/02 05:48:02;;;;;;;13.13;10.30;;;6.00;99.90;;;;;;6103368;28;20480;-66
2021/12/02 05:51:05;;;;;;;7.63;5.93;;;6.00;99.90;;;;;;6103172;28;20499;-67
2021/12/02 05:54:08;;;;;;;9.07;6.10;;;5.80;99.90;;;;;;6103326;28;20488;-67
2021/12/02 05:57:13;;;;;;;9.70;6.03;;;5.70;99.90;;;;;;6102953;28;20493;-66
2021/12/02 06:00:17;;;;;;;6.63;6.03;;;5.80;99.90;;;;;;6103054;28;20484;-67
2021/12/02 06:03:20;;;;;;;8.50;6.80;;;5.90;99.90;;;;;;6103025;28;20790;-66
2021/12/02 06:06:26;;;;;;;9.60;6.80;;;5.80;99.90;;;;;;6102531;28;20522;-66
2021/12/02 06:09:29;;;;;;;6.80;6.10;;;5.90;99.90;;;;;;6102981;28;20488;-66
2021/12/02 06:12:34;;;;;;;11.37;7.23;;;6.00;99.90;;;;;;6103330;28;20484;-66
2021/12/02 06:15:37;;;;;;;11.93;7.77;;;6.00;99.90;;;;;;6105110;28;20495;-65
2021/12/02 06:18:41;;;;;;;10.03;7.17;;;6.10;99.90;;;;;;6103237;28;20500;-66
2021/12/02 06:21:44;;;;;;;7.13;6.43;;;6.20;99.90;;;;;;6102725;28;20480;-66
2021/12/02 06:24:48;;;;;;;8.97;6.90;;;6.30;99.90;;;;;;6102761;28;20491;-66
2021/12/02 06:27:55;;;;;;;11.53;9.17;;;6.30;99.90;;;;;;6102668;28;20480;-67
2021/12/02 06:30:59;;;;;;;7.77;6.90;;;6.30;99.90;;;;;;6102201;28;20490;-66
2021/12/02 06:34:03;;;;;;;7.90;7.13;;;6.40;99.90;;;;;;6101993;28;20803;-66
2021/12/02 06:37:06;;;;;;;7.90;7.10;;;6.30;99.90;;;;;;6097738;28;20554;-67
2021/12/02 06:40:10;;;;;;;8.80;7.00;;;6.40;99.90;;;;;;6102155;28;20986;-66
2021/12/02 06:43:15;;;;;;;8.10;7.27;;;6.40;99.90;;;;;;6102567;28;20973;-66
2021/12/02 06:46:20;;;;;;;9.87;7.10;;;6.50;99.90;;;;;;6102013;28;20527;-66
2021/12/02 06:49:23;;;;;;;7.57;6.60;;;6.50;99.90;;;;;;6102343;28;20490;-67
2021/12/02 06:52:27;;;;;;;10.13;7.60;;;6.50;99.90;;;;;;6101960;28;20476;-67
2021/12/02 06:55:30;;;;;;;7.17;6.47;;;6.60;99.90;;;;;;6101810;28;20546;-66
2021/12/02 06:58:34;;;;;;;8.30;6.67;;;6.60;99.90;;;;;;6101739;28;20886;-66
2021/12/02 07:01:38;;;;;;;9.13;7.20;;;6.60;99.90;;;;;;6102575;28;20471;-66
2021/12/02 07:04:41;;;;;;;8.43;6.70;;;6.70;99.90;;;;;;6102381;28;20956;-67
2021/12/02 07:07:45;;;;;;;9.97;7.87;;;6.70;99.90;;;;;;6101923;28;20591;-64
2021/12/02 07:10:49;;;;;;;21.33;13.23;;;6.70;99.90;;;;;;6102132;28;20465;-63
2021/12/02 07:14:00;;;;;;;34.07;23.87;;;6.70;99.90;;;;;;6102095;28;20495;-65
2021/12/02 07:17:03;;;;;;;16.77;12.83;;;6.70;99.90;;;;;;6102419;28;20472;-64
2021/12/02 07:20:09;;;;;;;20.53;16.03;;;6.80;99.90;;;;;;6101780;28;21003;-64
2021/12/02 07:23:12;;;;;;;24.57;18.80;;;6.80;99.90;;;;;;6103179;28;20502;-67
2021/12/02 07:26:16;;;;;;;20.90;15.87;;;6.80;99.90;;;;;;6104593;28;20476;-64
2021/12/02 07:29:20;;;;;;;15.47;13.70;;;6.80;99.90;;;;;;6106671;28;20484;-65
2021/12/02 07:32:26;;;;;;;11.73;10.47;;;6.80;99.90;;;;;;6106076;28;20500;-64
2021/12/02 07:35:29;;;;;;;10.43;8.17;;;6.80;99.90;;;;;;6105926;28;20495;-64
2021/12/02 07:38:37;;;;;;;12.77;8.77;;;6.80;99.90;;;;;;6096017;28;20487;-63
2021/12/02 07:41:42;;;;;;;12.60;7.50;;;6.80;99.90;;;;;;6106370;28;20864;-65
2021/12/02 07:44:47;;;;;;;13.40;7.00;;;6.90;99.90;;;;;;6105338;28;20480;-65
2021/12/02 07:47:51;;;;;;;7.93;6.80;;;6.90;99.90;;;;;;6105023;28;20491;-65
2021/12/02 07:50:57;;;;;;;9.23;8.30;;;6.80;99.90;;;;;;6105301;28;20476;-65
2021/12/02 07:54:02;;;;;;;7.43;6.70;;;6.80;99.90;;;;;;6105115;28;20472;-65
2021/12/02 07:57:05;;;;;;;9.30;6.37;;;6.80;99.90;;;;;;6105129;28;20488;-65
2021/12/02 08:00:12;;;;;;;9.80;7.83;;;6.90;99.90;;;;;;6105139;28;20994;-65
2021/12/02 08:03:16;;;;;;;8.53;7.70;;;6.90;99.90;;;;;;6104857;28;20472;-65
2021/12/02 08:06:20;;;;;;;7.70;6.83;;;6.90;99.90;;;;;;6104720;28;20546;-65
2021/12/02 08:09:23;;;;;;;9.30;7.10;;;6.90;99.90;;;;;;6104966;28;20488;-65
2021/12/02 08:12:26;;;;;;;8.47;7.47;;;7.00;99.90;;;;;;6104884;28;20477;-64
2021/12/02 08:15:32;;;;;;;7.97;7.27;;;7.00;99.90;;;;;;6104358;28;20906;-64
2021/12/02 08:18:37;;;;;;;11.67;8.57;;;6.90;99.90;;;;;;6104654;28;20969;-64
2021/12/02 08:21:40;;;;;;;9.10;8.10;;;6.90;99.90;;;;;;6104872;28;20477;-64
2021/12/02 08:24:43;;;;;;;9.70;8.77;;;6.90;99.90;;;;;;6104689;28;20991;-64
2021/12/02 08:27:46;;;;;;;10.03;9.10;;;6.90;99.90;;;;;;6104592;28;20480;-66
2021/12/02 08:30:52;;;;;;;9.57;8.53;;;7.00;99.90;;;;;;6093463;28;20477;-66
2021/12/02 08:33:55;;;;;;;10.50;9.23;;;7.00;99.90;;;;;;6092397;28;20572;-65
2021/12/02 08:36:58;;;;;;;10.90;7.80;;;6.90;99.90;;;;;;6114122;28;20499;-65
2021/12/02 08:40:03;;;;;;;8.93;7.97;;;7.00;99.90;;;;;;6123351;28;20530;-66
2021/12/02 08:43:08;;;;;;;11.17;9.37;;;7.00;99.90;;;;;;6127360;28;20979;-66
2021/12/02 08:46:12;;;;;;;8.93;7.80;;;6.90;99.90;;;;;;6114044;28;20949;-66
2021/12/02 08:49:16;;;;;;;11.53;10.43;;;7.00;99.90;;;;;;6080482;28;20481;-65
2021/12/02 08:52:19;;;;;;;8.77;7.97;;;6.90;99.90;;;;;;6096867;28;20481;-65
2021/12/02 08:55:25;;;;;;;9.53;8.60;;;6.80;99.90;;;;;;6103469;28;20476;-65
2021/12/02 08:58:28;;;;;;;11.67;9.10;;;6.90;99.90;;;;;;6104908;28;20444;-65
2021/12/02 09:01:33;;;;;;;10.50;8.50;;;6.90;99.90;;;;;;6228181;28;20459;-64
2021/12/02 09:04:37;;;;;;;9.80;8.73;;;6.90;99.90;;;;;;6227950;28;20834;-66
2021/12/02 09:07:40;;;;;;;10.63;9.17;;;6.90;99.90;;;;;;6227961;28;20464;-66
2021/12/02 09:10:43;;;;;;;11.90;9.17;;;7.00;99.90;;;;;;6227387;28;20908;-64
2021/12/02 09:13:47;;;;;;;10.87;7.90;;;7.00;99.90;;;;;;6226679;28;20468;-63
2021/12/02 09:16:52;;;;;;;12.77;9.80;;;6.90;99.90;;;;;;6219627;28;20464;-66
2021/12/02 09:19:55;;;;;;;11.53;9.53;;;7.00;99.90;;;;;;6216196;28;20781;-64
2021/12/02 09:22:58;;;;;;;19.63;10.67;;;6.90;99.90;;;;;;6226365;28;20475;-66
2021/12/02 09:26:02;;;;;;;13.43;9.07;;;6.90;99.90;;;;;;6226863;28;20472;-67
2021/12/02 09:29:05;;;;;;;16.20;12.43;;;6.90;99.90;;;;;;6226062;28;20476;-66
2021/12/02 09:32:11;;;;;;;16.63;11.60;;;7.00;99.90;;;;;;6225858;28;20992;-66
2021/12/02 09:35:15;;;;;;;20.70;14.50;;;6.90;99.90;;;;;;6220886;28;20481;-68
2021/12/02 09:38:18;;;;;;;16.60;14.40;;;7.00;99.90;;;;;;6225782;28;20801;-65
2021/12/02 09:41:22;;;;;;;28.53;13.57;;;7.00;99.90;;;;;;6226484;28;20475;-65
2021/12/02 09:44:26;;;;;;;14.60;11.50;;;7.10;99.90;;;;;;6226448;28;20472;-68
2021/12/02 09:47:32;;;;;;;13.23;10.90;;;7.10;99.90;;;;;;6224622;28;20534;-63
2021/12/02 09:50:38;;;;;;;13.73;9.87;;;7.10;99.90;;;;;;6225854;28;20472;-63
2021/12/02 09:53:52;;;;;;;11.93;9.10;;;7.10;99.90;;;;;;6225728;28;20550;-63
2021/12/02 09:56:58;;;;;;;15.30;10.37;;;7.20;99.90;;;;;;6226345;28;20482;-62
2021/12/02 10:00:01;;;;;;;36.03;12.50;;;7.20;99.90;;;;;;6223681;28;20472;-62
2021/12/02 10:03:16;;;;;;;13.67;10.27;;;7.20;99.90;;;;;;6225648;28;20472;-62
2021/12/02 10:06:27;;;;;;;11.97;10.10;;;7.20;99.90;;;;;;6225253;28;20649;-63
2021/12/02 10:09:38;;;;;;;20.43;10.40;;;7.20;99.90;;;;;;6225203;28;20843;-63
2021/12/02 10:13:04;;;;;;;17.07;11.03;;;7.10;99.90;;;;;;6225865;28;20479;-63
2021/12/02 10:16:14;;;;;;;13.40;11.43;;;7.10;99.90;;;;;;6216460;28;20500;-62
2021/12/02 10:19:21;;;;;;;12.87;11.53;;;7.00;99.90;;;;;;6200590;28;20484;-63
2021/12/02 10:22:24;;;;;;;11.93;10.50;;;7.00;99.90;;;;;;6215974;28;20994;-64
2021/12/02 10:25:32;;;;;;;12.90;11.60;;;7.10;99.90;;;;;;6224842;28;20464;-64
2021/12/02 10:28:41;;;;;;;15.20;12.17;;;7.10;99.90;;;;;;6221800;28;20470;-63
2021/12/02 10:31:47;;;;;;;13.20;11.90;;;7.10;99.90;;;;;;6225477;28;20451;-63
2021/12/02 10:34:55;;;;;;;15.03;12.67;;;7.20;99.90;;;;;;6225146;28;20464;-65
2021/12/02 10:37:58;;;;;;;15.93;12.93;;;7.20;99.90;;;;;;6224810;28;20494;-65
2021/12/02 10:41:03;;;;;;;13.47;11.67;;;7.20;99.90;;;;;;6225219;28;20793;-65
2021/12/02 10:44:16;;;;;;;15.10;12.20;;;7.20;99.90;;;;;;6224830;28;20478;-66
2021/12/02 10:47:21;;;;;;;15.27;11.67;;;7.20;99.90;;;;;;6223249;28;20471;-64
2021/12/02 10:50:28;;;;;;;13.47;11.50;;;7.10;99.90;;;;;;6215978;28;20500;-63
2021/12/02 10:53:31;;;;;;;15.53;12.60;;;7.00;99.90;;;;;;6225499;28;20472;-66
2021/12/02 10:56:36;;;;;;;16.80;11.97;;;7.00;99.90;;;;;;6225352;28;20472;-65
2021/12/02 10:59:44;;;;;;;13.87;11.27;;;7.00;99.90;;;;;;6225126;28;20472;-64
2021/12/02 11:02:49;;;;;;;12.30;11.00;;;7.00;99.90;;;;;;6230096;28;20472;-62
2021/12/02 11:05:54;;;;;;;15.70;11.90;;;7.00;99.90;;;;;;6229951;28;20518;-62
2021/12/02 11:09:00;;;;;;;14.27;11.50;;;7.10;99.90;;;;;;6241166;28;20485;-65
2021/12/02 11:12:23;;;;;;;15.00;12.30;;;7.10;99.90;;;;;;6252474;28;20481;-63
2021/12/02 11:15:29;;;;;;;13.90;12.20;;;7.00;99.90;;;;;;6252468;28;20482;-63
2021/12/02 11:18:34;;;;;;;13.03;11.33;;;7.10;99.90;;;;;;6252815;28;20478;-64
2021/12/02 11:21:39;;;;;;;11.70;10.37;;;7.10;99.90;;;;;;6252623;28;20471;-63
2021/12/02 11:24:43;;;;;;;13.43;11.93;;;7.10;99.90;;;;;;6252764;28;20810;-63
2021/12/02 11:27:48;;;;;;;14.43;12.00;;;7.10;99.90;;;;;;6252584;28;20541;-63
2021/12/02 11:30:52;;;;;;;12.90;11.47;;;7.10;99.90;;;;;;6253588;28;20470;-63
2021/12/02 11:34:11;;;;;;;13.70;11.67;;;7.10;99.90;;;;;;6252124;28;20479;-63
2021/12/02 11:37:18;;;;;;;12.43;11.13;;;7.10;99.90;;;;;;6242897;28;20817;-64
2021/12/02 11:40:23;;;;;;;15.60;10.60;;;7.20;99.90;;;;;;6226326;28;20471;-64
2021/12/02 11:43:29;;;;;;;16.13;11.43;;;7.20;99.90;;;;;;6227352;28;20479;-65
2021/12/02 11:46:32;;;;;;;12.60;10.93;;;7.20;99.90;;;;;;6227720;28;20459;-67
2021/12/02 11:49:38;;;;;;;14.00;12.43;;;7.20;99.90;;;;;;6228661;28;20487;-65
2021/12/02 11:52:43;;;;;;;13.77;10.37;;;7.20;99.90;;;;;;6226130;28;20436;-66
2021/12/02 11:55:46;;;;;;;11.77;10.57;;;7.20;99.90;;;;;;6228685;28;20472;-65
2021/12/02 11:58:51;;;;;;;11.63;10.40;;;7.30;99.90;;;;;;6219691;28;20473;-69
2021/12/02 12:01:56;;;;;;;12.03;9.97;;;7.20;99.90;;;;;;6204222;28;20476;-67
2021/12/02 12:05:02;;;;;;;16.20;10.70;;;7.20;99.90;;;;;;6217855;28;20919;-66
2021/12/02 12:08:07;;;;;;;11.30;10.20;;;7.30;99.90;;;;;;6228866;28;20471;-66
2021/12/02 12:11:23;;;;;;;15.07;13.60;;;7.30;99.90;;;;;;6228164;28;20475;-66
2021/12/02 12:14:35;;;;;;;10.97;9.87;;;7.30;99.90;;;;;;6227322;28;20805;-66
2021/12/02 12:17:40;;;;;;;9.73;8.73;;;7.30;99.90;;;;;;6227772;28;20471;-66
2021/12/02 12:21:01;;;;;;;14.53;10.60;;;7.20;99.90;;;;;;6227478;28;20497;-66
2021/12/02 12:24:07;;;;;;;11.03;9.90;;;7.30;99.90;;;;;;6228120;28;20483;-65
2021/12/02 12:27:12;;;;;;;10.77;9.87;;;7.30;99.90;;;;;;6228262;28;20476;-65
2021/12/02 12:30:23;;;;;;;9.53;8.60;;;7.30;99.90;;;;;;6227404;28;20787;-65
2021/12/02 12:33:36;;;;;;;10.23;9.23;;;7.40;99.90;;;;;;6227581;28;20472;-66
2021/12/02 12:36:42;;;;;;;9.67;8.73;;;7.40;99.90;;;;;;6227912;28;20495;-67
2021/12/02 12:40:05;;;;;;;10.43;9.40;;;7.40;99.90;;;;;;6227389;28;20475;-66
2021/12/02 12:43:33;;;;;;;10.27;9.27;;;7.40;99.90;;;;;;6227417;28;20487;-66
2021/12/02 12:46:53;;;;;;;10.70;9.20;;;7.40;99.90;;;;;;6104387;28;20494;-66
2021/12/02 12:50:22;;;;;;;8.33;7.53;;;7.40;99.90;;;;;;6102638;28;20469;-66
2021/12/02 12:53:36;;;;;;;11.67;8.93;;;7.40;99.90;;;;;;6103511;28;20487;-67
2021/12/02 12:56:42;;;;;;;12.30;8.80;;;7.40;99.90;;;;;;6101480;28;20480;-66
2021/12/02 12:59:54;;;;;;;8.03;6.80;;;7.30;99.90;;;;;;6101582;28;20760;-66
2021/12/02 13:03:08;;;;;;;6.90;6.17;;;7.30;99.90;;;;;;6111710;28;20473;-65
2021/12/02 13:06:21;;;;;;;7.57;5.93;;;7.30;99.90;;;;;;6102448;28;20485;-63
2021/12/02 13:09:51;;;;;;;6.07;5.40;;;7.30;99.90;;;;;;6078895;28;20477;-63
2021/12/02 13:12:58;;;;;;;7.60;5.37;;;7.30;99.90;;;;;;6097302;28;20483;-63
2021/12/02 13:16:31;;;;;;;7.03;5.63;;;7.30;99.90;;;;;;6102057;28;20480;-66
2021/12/02 13:19:35;;;;;;;5.63;5.10;;;7.20;99.90;;;;;;6102513;28;20494;-63
2021/12/02 13:22:38;;;;;;;5.40;4.90;;;7.20;99.90;;;;;;6102087;28;20448;-63
2021/12/02 13:25:47;;;;;;;8.80;6.10;;;7.30;99.90;;;;;;6101752;28;20472;-63
2021/12/02 13:28:54;;;;;;;8.83;5.50;;;7.30;99.90;;;;;;6101555;28;20477;-63
2021/12/02 13:32:03;;;;;;;7.90;6.10;;;7.30;99.90;;;;;;6101804;28;20483;-66
2021/12/02 13:35:07;;;;;;;8.07;5.37;;;7.30;99.90;;;;;;6102225;28;20472;-65
2021/12/02 13:38:11;;;;;;;6.47;5.03;;;7.30;99.90;;;;;;6095715;28;20581;-67
2021/12/02 13:41:18;;;;;;;8.90;7.40;;;7.30;99.90;;;;;;6096529;28;20489;-65
2021/12/02 13:44:25;;;;;;;7.67;6.20;;;7.30;99.90;;;;;;6101533;28;21005;-65
2021/12/02 13:47:31;;;;;;;6.43;5.30;;;7.40;99.90;;;;;;6101641;28;20972;-67
2021/12/02 13:50:35;;;;;;;10.37;6.07;;;7.40;99.90;;;;;;6100871;28;20476;-67
2021/12/02 13:53:45;;;;;;;7.07;6.37;;;7.40;99.90;;;;;;6101427;28;20489;-66
2021/12/02 13:56:49;;;;;;;6.90;5.10;;;7.40;99.90;;;;;;6091632;28;20480;-67
2021/12/02 13:59:53;;;;;;;3.70;3.40;;;7.30;99.90;;;;;;6101103;28;20480;-65
2021/12/02 14:03:00;;;;;;;9.40;6.97;;;7.40;99.90;;;;;;6096288;28;20473;-65
2021/12/02 14:06:07;;;;;;;10.23;8.67;;;7.40;99.90;;;;;;6100117;28;20495;-64
2021/12/02 14:09:16;;;;;;;16.83;8.30;;;7.40;99.90;;;;;;6077009;28;20812;-65
2021/12/02 14:12:23;;;;;;;12.77;8.47;;;7.40;99.90;;;;;;6076718;28;20799;-65
2021/12/02 14:15:30;;;;;;;8.20;7.30;;;7.40;99.90;;;;;;6076818;28;20485;-65
2021/12/02 14:18:35;;;;;;;8.10;7.20;;;7.40;99.90;;;;;;6077217;28;20477;-65
2021/12/02 14:21:39;;;;;;;7.63;7.00;;;7.30;99.90;;;;;;6077885;28;20477;-65
2021/12/02 14:24:42;;;;;;;8.80;8.10;;;7.00;99.90;;;;;;6078043;28;20492;-65
2021/12/02 14:27:45;;;;;;;8.23;7.43;;;6.90;99.90;;;;;;6077588;28;20492;-65
2021/12/02 14:30:52;;;;;;;8.73;7.83;;;6.80;99.90;;;;;;6077801;28;20993;-66
2021/12/02 14:33:57;;;;;;;7.87;7.17;;;6.80;99.90;;;;;;6077632;28;20473;-67
2021/12/02 14:37:00;;;;;;;8.77;7.83;;;6.90;99.90;;;;;;6080756;28;20477;-67
2021/12/02 14:40:04;;;;;;;8.10;7.33;;;6.90;99.90;;;;;;6101742;28;20513;-65
2021/12/02 14:43:18;;;;;;;8.50;7.40;;;6.80;99.90;;;;;;6105245;28;20476;-66
2021/12/02 14:46:26;;;;;;;8.67;7.77;;;6.80;99.90;;;;;;6102969;28;20572;-66
2021/12/02 14:49:33;;;;;;;8.53;7.73;;;6.80;99.90;;;;;;6104636;28;20452;-64
2021/12/02 14:52:37;;;;;;;11.20;8.40;;;6.80;99.90;;;;;;6105080;28;20479;-65
2021/12/02 14:55:43;;;;;;;8.83;8.07;;;6.80;99.90;;;;;;6105126;28;20476;-68
2021/12/02 14:59:12;;;;;;;8.63;7.83;;;6.90;99.90;;;;;;6103956;28;20465;-67
2021/12/02 15:02:21;;;;;;;8.60;7.90;;;6.80;99.90;;;;;;6105035;28;20803;-65
2021/12/02 15:05:26;;;;;;;9.20;8.40;;;6.80;99.90;;;;;;6100352;28;20473;-67
2021/12/02 15:08:33;;;;;;;9.90;9.00;;;6.80;99.90;;;;;;6093304;28;20480;-65
2021/12/02 15:11:36;;;;;;;11.13;9.37;;;6.80;99.90;;;;;;6082085;28;20482;-65
2021/12/02 15:14:41;;;;;;;9.40;8.50;;;6.70;99.90;;;;;;6082536;28;20486;-67
2021/12/02 15:17:49;;;;;;;11.60;8.90;;;6.70;99.90;;;;;;6082891;28;20651;-65
2021/12/02 15:20:56;;;;;;;10.10;9.20;;;6.70;99.90;;;;;;6083249;28;20498;-64
2021/12/02 15:23:59;;;;;;;8.93;8.13;;;6.70;99.90;;;;;;6082402;28;20485;-63
2021/12/02 15:27:13;;;;;;;10.50;9.40;;;6.70;99.90;;;;;;6094719;28;20490;-63
2021/12/02 15:30:19;;;;;;;9.73;8.80;;;6.70;99.90;;;;;;6129384;28;20482;-64
2021/12/02 15:33:28;;;;;;;12.70;10.10;;;6.70;99.90;;;;;;6119288;28;20492;-65
2021/12/02 15:36:33;;;;;;;11.30;10.20;;;6.70;99.90;;;;;;6105267;28;20488;-66
2021/12/02 15:39:36;;;;;;;13.40;10.10;;;6.60;99.90;;;;;;6099287;28;20556;-66
2021/12/02 15:42:39;;;;;;;11.43;10.40;;;6.70;99.90;;;;;;6105706;28;20976;-66
2021/12/02 15:45:44;;;;;;;11.00;9.90;;;6.70;99.90;;;;;;6104898;28;20826;-65
2021/12/02 15:48:50;;;;;;;10.63;9.37;;;6.70;99.90;;;;;;6105046;28;20480;-66
2021/12/02 15:51:55;;;;;;;12.30;11.10;;;6.70;99.90;;;;;;6134126;28;20483;-66
2021/12/02 15:54:58;;;;;;;15.80;12.57;;;6.70;99.90;;;;;;6144588;28;20471;-66
2021/12/02 15:58:01;;;;;;;14.80;12.17;;;6.70;99.90;;;;;;6158204;28;20481;-66
2021/12/02 16:01:06;;;;;;;11.77;10.07;;;6.70;99.90;;;;;;6088145;28;20476;-65
2021/12/02 16:04:16;;;;;;;12.53;11.33;;;6.60;99.90;;;;;;6100579;28;20480;-66
2021/12/02 16:07:25;;;;;;;12.97;11.60;;;6.70;99.90;;;;;;6103314;28;20480;-65
2021/12/02 16:14:01;;;;;;;13.70;12.30;;;6.60;99.90;;;;;;6092898;28;20471;-66
2021/12/02 16:17:04;;;;;;;15.30;12.20;;;6.60;99.90;;;;;;6103143;28;20468;-66
2021/12/02 16:20:13;;;;;;;11.77;10.23;;;6.60;99.90;;;;;;6088986;28;20469;-67